• Join FlightAware (Why Join?)
  • Login
  • US Flag 
05:12AM EST


 

Airport Tracker/Info


-or-


 

Live Flight TrackerFlight Track Log ✈ N1944E ✈ 30-Apr-2013 ✈ KCOD - KRKS

Flight Track Log - Related Links

Times and Time Zones

All times are in EDT time to prevent confusion due to time zone crossing. See the N1944E flight status page for this flight to view local times or setup timezone preferences in your user account.

Time Position Orientation Groundspeed Altitude Reporting Facility
EDT Latitude Longitude Course Direction KTS MPH feet Rate Location/Type
08:32AM 44.4028 -108.9550 167° South 149 171 8,600  Level Salt Lake Center
08:33AM 44.3658 -108.9428 167° South 147 169 9,400 1,020 Climbing Salt Lake Center
08:34AM 44.3233 -108.9256 164° South 144 166 10,700 960 Climbing Salt Lake Center
08:35AM 44.2861 -108.9200 174° South 142 163 11,400 780 Climbing Salt Lake Center
08:36AM 44.2467 -108.9131 173° South 145 167 12,300 960 Climbing Salt Lake Center
08:37AM 44.1992 -108.8969 166° South 151 174 13,400 900 Climbing Salt Lake Center
08:38AM 44.1600 -108.8892 172° South 151 174 14,200 720 Climbing Salt Lake Center
08:39AM 44.1200 -108.8803 171° South 151 174 14,900 360 Climbing Salt Lake Center
08:40AM 44.0675 -108.8650 168° South 160 184 15,000  Climbing Salt Lake Center
08:41AM 44.0156 -108.8550 172° South 179 206 15,000  Level Salt Lake Center
08:42AM 43.9644 -108.8444 172° South 188 216 15,000  Level Salt Lake Center
08:43AM 43.9072 -108.8339 172° South 188 216 15,000  Level Salt Lake Center
08:44AM 43.8578 -108.8228 171° South 188 216 15,000  Level Salt Lake Center
08:45AM 43.8075 -108.8097 169° South 189 217 15,000  Level Salt Lake Center
08:46AM 43.7500 -108.7961 170° South 189 217 15,000  Level Salt Lake Center
08:47AM 43.6981 -108.7817 169° South 193 222 15,000  Level Salt Lake Center
08:48AM 43.6469 -108.7703 171° South 194 223 15,000 240 Level Salt Lake Center
08:49AM 43.5956 -108.7578 170° South 195 224 15,500 540 Climbing Salt Lake Center
08:50AM 43.5408 -108.7406 167° South 187 215 16,100 240 Climbing Salt Lake Center
08:51AM 43.4900 -108.7236 166° South 190 219 16,100  Level Salt Lake Center
08:52AM 43.4375 -108.7083 168° South 195 224 16,100  Level Salt Lake Center
08:53AM 43.3772 -108.6922 169° South 198 228 16,100  Level Salt Lake Center
08:54AM 43.3250 -108.6817 172° South 198 228 16,100  Level Salt Lake Center
08:55AM 43.2725 -108.6692 170° South 199 229 16,100  Level Salt Lake Center
08:56AM 43.2114 -108.6531 169° South 200 230 16,100  Level Salt Lake Center
08:57AM 43.1597 -108.6381 168° South 199 229 16,100  Level Salt Lake Center
08:58AM 43.1094 -108.6292 173° South 193 222 16,100  Level Salt Lake Center
08:59AM 43.0594 -108.6511 198° South 170 196 16,100  Level Salt Lake Center
09:00AM 43.0161 -108.6694 197° South 168 193 16,100  Level Salt Lake Center
09:01AM 42.9728 -108.6828 193° South 167 192 16,100  Level Salt Lake Center
09:02AM 42.9242 -108.6933 189° South 164 189 16,100  Level Salt Lake Center
09:03AM 42.8808 -108.7092 195° South 168 193 16,100  Level Salt Lake Center
09:04AM 42.8306 -108.7250 193° South 166 191 16,100  Level Salt Lake Center
09:05AM 42.7903 -108.7375 193° South 157 181 16,100  Level Salt Lake Center
09:06AM 42.7497 -108.7486 191° South 156 180 16,100  Level Salt Lake Center
09:07AM 42.7033 -108.7625 192° South 153 176 16,100  Level Salt Lake Center
09:08AM 42.6622 -108.7728 190° South 155 178 16,100  Level Salt Lake Center
09:09AM 42.6186 -108.7875 194° South 166 191 16,100  Level Salt Lake Center
09:10AM 42.5667 -108.8056 194° South 171 197 16,100  Level Salt Lake Center
09:11AM 42.5250 -108.8183 193° South 163 188 16,100  Level Salt Lake Center
09:12AM 42.4864 -108.8239 186° South 149 171 16,100 -180 Level Salt Lake Center
09:13AM 42.4414 -108.8333 189° South 146 168 15,800 -300 Descending Salt Lake Center
09:14AM 42.3981 -108.8439 190° South 161 185 15,500 -300 Descending Salt Lake Center
09:15AM 42.3531 -108.8558 191° South 169 194 15,200 -240 Descending Salt Lake Center
09:16AM 42.3019 -108.8736 194° South 169 194 15,100 -120 Descending Salt Lake Center
09:17AM 42.2594 -108.8883 194° South 166 191 15,000 -180 Descending Salt Lake Center
09:18AM 42.2158 -108.9025 194° South 167 192 14,800 -300 Descending Salt Lake Center
09:19AM 42.1650 -108.9175 192° South 167 192 14,500 -300 Descending Salt Lake Center
09:20AM 42.1197 -108.9297 191° South 170 196 14,200 -420 Descending Salt Lake Center
09:21AM 42.0731 -108.9414 191° South 174 200 13,700 -540 Descending Salt Lake Center
09:22AM 42.0158 -108.9525 188° South 181 208 13,200 -600 Descending Salt Lake Center
09:23AM 41.9669 -108.9586 185° South 184 212 12,600 -720 Descending Salt Lake Center
09:24AM 41.9178 -108.9928 207° Southwest 178 205 11,800 -720 Descending Salt Lake Center
09:25AM 41.8703 -109.0164 200° South 183 211 11,200 -600 Descending Salt Lake Center